createdAt,value
2022-10-20T00:01:24.905Z,67.66
2022-10-20T00:03:58.130Z,67.64
2022-10-20T00:06:33.283Z,67.78
2022-10-20T00:09:07.708Z,67.57
2022-10-20T00:11:40.519Z,67.59
2022-10-20T00:14:13.485Z,67.71
2022-10-20T00:16:46.123Z,68.02
2022-10-20T00:19:18.928Z,67.65
2022-10-20T00:21:51.708Z,68.05
2022-10-20T00:24:26.098Z,68.07
2022-10-20T00:26:58.826Z,68.44
2022-10-20T00:29:33.412Z,68.42
2022-10-20T00:32:06.311Z,67.88
2022-10-20T00:34:39.125Z,68.03
2022-10-20T00:37:11.856Z,68.16
2022-10-20T00:39:45.924Z,68.12
2022-10-20T00:42:19.836Z,67.93
2022-10-20T00:44:56.147Z,67.95
2022-10-20T00:47:40.007Z,68.06
2022-10-20T00:50:17.094Z,67.81
2022-10-20T00:52:50.567Z,67.82
2022-10-20T00:55:27.974Z,68.11
2022-10-20T00:58:02.132Z,68.38
2022-10-20T01:00:35.258Z,68.43
2022-10-20T01:03:09.647Z,67.93
2022-10-20T01:05:42.484Z,67.93
2022-10-20T01:08:15.260Z,67.54
2022-10-20T01:10:57.817Z,67.89
2022-10-20T01:13:39.658Z,67.93
2022-10-20T01:16:20.880Z,67.67
2022-10-20T01:19:01.961Z,67.63
2022-10-20T01:22:09.660Z,67.56
2022-10-20T01:25:02.111Z,67.54
2022-10-20T01:27:39.500Z,67.40
2022-10-20T01:30:15.226Z,67.37
2022-10-20T01:33:12.500Z,67.44
2022-10-20T01:35:56.111Z,67.39
2022-10-20T01:38:37.945Z,67.59
2022-10-20T01:41:19.082Z,68.24
2022-10-20T01:43:54.533Z,67.41
2022-10-20T01:46:28.994Z,67.76
2022-10-20T01:49:04.372Z,68.09
2022-10-20T01:51:37.129Z,67.91
2022-10-20T01:54:21.722Z,67.75
2022-10-20T01:57:10.490Z,67.94
2022-10-20T02:00:04.959Z,67.77
2022-10-20T02:02:55.376Z,68.14
2022-10-20T02:05:39.917Z,67.83
2022-10-20T02:08:19.909Z,67.53
2022-10-20T02:10:57.008Z,68.07
2022-10-20T02:13:32.066Z,68.19
2022-10-20T02:16:12.573Z,67.71
2022-10-20T02:18:48.551Z,68.00
2022-10-20T02:21:21.521Z,67.79
2022-10-20T02:23:55.888Z,67.52
2022-10-20T02:26:30.817Z,67.99
2022-10-20T02:29:11.648Z,67.81
2022-10-20T02:31:46.644Z,68.07
2022-10-20T02:34:19.438Z,67.64
2022-10-20T02:36:55.829Z,68.09
2022-10-20T02:39:28.665Z,67.99
2022-10-20T02:42:01.591Z,68.14
2022-10-20T02:44:34.651Z,68.16
2022-10-20T02:47:08.669Z,67.73
2022-10-20T02:49:41.480Z,68.12
2022-10-20T02:52:14.265Z,67.86
2022-10-20T02:54:47.260Z,67.92
2022-10-20T02:57:20.073Z,68.14
2022-10-20T02:59:52.852Z,68.29
2022-10-20T03:02:27.016Z,68.12
2022-10-20T03:04:59.962Z,68.15
2022-10-20T03:07:32.879Z,68.16
2022-10-20T03:10:06.470Z,68.21
2022-10-20T03:12:39.239Z,68.44
2022-10-20T03:15:12.598Z,68.22
2022-10-20T03:17:46.681Z,68.64
2022-10-20T03:20:19.443Z,68.28
2022-10-20T03:22:52.451Z,68.83
2022-10-20T03:25:25.259Z,68.14
2022-10-20T03:27:58.029Z,68.29
2022-10-20T03:30:30.824Z,68.53
2022-10-20T03:33:05.777Z,68.46
2022-10-20T03:35:38.536Z,68.47
2022-10-20T03:38:11.445Z,68.76
2022-10-20T03:40:44.299Z,68.67
2022-10-20T03:43:17.315Z,68.48
2022-10-20T03:45:49.924Z,68.32
2022-10-20T03:48:24.085Z,68.09
2022-10-20T03:50:56.806Z,68.46
2022-10-20T03:53:29.730Z,68.44
2022-10-20T03:56:06.790Z,68.52
2022-10-20T03:58:39.468Z,68.66
2022-10-20T04:01:15.473Z,68.30
2022-10-20T04:03:49.719Z,68.50
2022-10-20T04:06:22.406Z,68.39
2022-10-20T04:08:55.309Z,68.39
2022-10-20T04:11:27.976Z,68.63
2022-10-20T04:14:00.928Z,68.48
2022-10-20T04:16:33.642Z,68.17
2022-10-20T04:19:07.678Z,68.10
2022-10-20T04:21:40.453Z,68.25
2022-10-20T04:24:13.268Z,68.28
2022-10-20T04:26:46.027Z,68.54
2022-10-20T04:29:18.895Z,68.46
2022-10-20T04:31:54.264Z,68.71
2022-10-20T04:34:28.602Z,68.19
2022-10-20T04:37:01.333Z,71.77
2022-10-20T04:39:34.247Z,69.71
2022-10-20T04:42:06.995Z,69.00
2022-10-20T04:44:40.046Z,68.87
2022-10-20T04:47:13.059Z,68.92
2022-10-20T04:49:47.154Z,67.93
2022-10-20T04:52:20.781Z,68.73
2022-10-20T04:54:53.476Z,68.53
2022-10-20T04:57:26.363Z,68.71
2022-10-20T04:59:59.137Z,68.54
2022-10-20T05:02:32.041Z,69.02
2022-10-20T05:05:07.067Z,68.74
2022-10-20T05:07:40.119Z,68.64
2022-10-20T05:10:13.130Z,68.63
2022-10-20T05:12:45.902Z,68.64
2022-10-20T05:15:18.753Z,68.79
2022-10-20T05:17:51.613Z,68.64
2022-10-20T05:20:25.737Z,68.83
2022-10-20T05:22:58.609Z,69.12
2022-10-20T05:25:36.606Z,69.06
2022-10-20T05:28:09.881Z,68.68
2022-10-20T05:33:15.565Z,69.01
2022-10-20T05:35:50.186Z,68.92
2022-10-20T05:38:23.173Z,68.92
2022-10-20T05:40:56.019Z,69.15
2022-10-20T05:43:28.889Z,69.07
2022-10-20T05:46:02.587Z,68.94
2022-10-20T05:48:39.482Z,68.87
2022-10-20T05:51:19.236Z,68.68
2022-10-20T05:53:52.735Z,68.57
2022-10-20T05:56:27.392Z,68.59
2022-10-20T05:59:03.173Z,68.84
2022-10-20T06:01:47.978Z,68.37
2022-10-20T06:04:24.272Z,68.66
2022-10-20T06:06:59.184Z,68.76
2022-10-20T06:09:36.742Z,68.98
2022-10-20T06:12:09.793Z,68.56
2022-10-20T06:14:42.617Z,68.68
2022-10-20T06:17:15.597Z,68.73
2022-10-20T06:19:48.472Z,68.74
2022-10-20T06:22:22.553Z,68.66
2022-10-20T06:24:55.492Z,68.55
2022-10-20T06:27:28.738Z,68.60
2022-10-20T06:30:01.632Z,68.54
2022-10-20T06:32:36.520Z,68.87
2022-10-20T06:35:10.115Z,68.81
2022-10-20T06:37:44.526Z,68.76
2022-10-20T06:40:17.641Z,68.88
2022-10-20T06:42:52.680Z,68.59
2022-10-20T06:45:28.411Z,68.76
2022-10-20T06:48:01.658Z,68.50
2022-10-20T06:50:34.958Z,69.26
2022-10-20T06:53:11.881Z,69.01
2022-10-20T06:56:02.521Z,69.61
2022-10-20T06:58:37.226Z,69.15
2022-10-20T07:01:16.438Z,69.05
2022-10-20T07:03:50.390Z,69.22
2022-10-20T07:06:24.868Z,68.79
2022-10-20T07:09:05.361Z,68.67
2022-10-20T07:11:38.510Z,68.93
2022-10-20T07:14:14.813Z,69.00
2022-10-20T07:16:47.995Z,68.97
2022-10-20T07:19:22.263Z,68.91
2022-10-20T07:21:57.318Z,68.42
2022-10-20T07:24:35.070Z,68.81
2022-10-20T07:27:08.175Z,69.15
2022-10-20T07:29:42.788Z,68.82
2022-10-20T07:32:17.672Z,68.75
2022-10-20T07:34:52.357Z,68.79
2022-10-20T07:37:25.392Z,68.90
2022-10-20T07:40:02.294Z,68.89
2022-10-20T07:42:35.673Z,69.05
2022-10-20T07:45:09.766Z,72.98
2022-10-20T07:47:46.759Z,69.66
2022-10-20T07:50:21.275Z,69.44
2022-10-20T07:52:54.939Z,69.21
2022-10-20T07:55:38.772Z,68.92
2022-10-20T07:58:12.107Z,69.33
2022-10-20T08:00:45.118Z,69.38
2022-10-20T08:03:18.010Z,69.50
2022-10-20T08:05:50.871Z,68.93
2022-10-20T08:08:23.989Z,69.43
2022-10-20T08:10:59.122Z,69.73
2022-10-20T08:13:32.974Z,69.51
2022-10-20T08:16:08.364Z,69.69
2022-10-20T08:21:28.253Z,69.02
2022-10-20T08:24:02.570Z,69.19
2022-10-20T08:26:37.164Z,69.12
2022-10-20T08:29:12.258Z,68.83
2022-10-20T08:31:46.138Z,68.72
2022-10-20T08:34:19.261Z,69.42
2022-10-20T08:36:52.197Z,69.39
2022-10-20T08:39:31.091Z,69.20
2022-10-20T08:42:09.204Z,69.37
2022-10-20T08:44:47.275Z,68.60
2022-10-20T08:47:30.880Z,68.76
2022-10-20T08:50:09.790Z,68.49
2022-10-20T08:52:47.384Z,68.44
2022-10-20T08:55:27.443Z,67.95
2022-10-20T08:58:05.348Z,68.41
2022-10-20T09:00:44.444Z,68.26
2022-10-20T09:03:22.066Z,67.62
2022-10-20T09:06:03.050Z,68.63
2022-10-20T09:08:46.212Z,69.51
2022-10-20T09:11:28.109Z,68.59
2022-10-20T09:14:09.156Z,67.99
2022-10-20T09:16:59.943Z,69.15
2022-10-20T09:19:40.194Z,69.19
2022-10-20T09:22:14.844Z,69.66
2022-10-20T09:24:55.825Z,68.23
2022-10-20T09:27:35.789Z,69.19
2022-10-20T09:30:19.351Z,68.25
2022-10-20T09:32:54.733Z,69.26
2022-10-20T09:35:35.636Z,67.51
2022-10-20T09:38:26.754Z,67.66
2022-10-20T09:41:15.793Z,67.50
2022-10-20T09:43:57.300Z,70.18
2022-10-20T09:46:38.704Z,70.21
2022-10-20T09:49:25.317Z,68.92
2022-10-20T09:51:59.261Z,70.82
2022-10-20T09:54:32.762Z,70.42
2022-10-20T09:57:10.149Z,70.78
2022-10-20T09:59:49.604Z,71.07
2022-10-20T10:02:36.089Z,70.34
2022-10-20T10:05:21.367Z,71.04
2022-10-20T10:08:10.336Z,70.47
2022-10-20T10:10:45.310Z,71.01
2022-10-20T10:13:25.123Z,71.00
2022-10-20T10:16:08.879Z,70.81
2022-10-20T10:18:57.420Z,71.32
2022-10-20T10:21:34.914Z,71.23
2022-10-20T10:24:40.283Z,70.86
2022-10-20T10:27:22.038Z,71.86
2022-10-20T10:29:58.047Z,71.24
2022-10-20T10:32:34.969Z,71.59
2022-10-20T10:35:21.310Z,71.60
2022-10-20T10:37:55.435Z,71.96
2022-10-20T10:40:38.055Z,71.35
2022-10-20T10:43:29.749Z,70.36
2022-10-20T10:46:12.318Z,70.25
2022-10-20T10:49:11.499Z,70.67
2022-10-20T10:52:00.702Z,70.65
2022-10-20T10:55:48.876Z,71.73
2022-10-20T10:58:41.643Z,71.03
2022-10-20T11:01:27.184Z,70.92
2022-10-20T11:04:19.818Z,71.04
2022-10-20T11:07:02.443Z,70.45
2022-10-20T11:09:47.514Z,70.30
2022-10-20T11:12:43.185Z,71.08
2022-10-20T11:15:28.835Z,71.15
2022-10-20T11:18:11.916Z,71.11
2022-10-20T11:20:54.468Z,71.51
2022-10-20T11:24:06.538Z,71.92
2022-10-20T11:26:41.987Z,71.82
2022-10-20T11:29:20.497Z,71.91
2022-10-20T11:31:58.921Z,72.02
2022-10-20T11:34:39.003Z,71.89
2022-10-20T11:37:20.636Z,71.48
2022-10-20T11:40:05.987Z,72.06
2022-10-20T11:42:45.270Z,71.54
2022-10-20T11:45:30.516Z,71.68
2022-10-20T11:48:14.008Z,71.58
2022-10-20T11:51:21.571Z,72.58
2022-10-20T11:54:19.553Z,71.72
2022-10-20T11:57:11.930Z,72.34
2022-10-20T12:00:06.184Z,72.72
2022-10-20T12:03:14.600Z,72.85
2022-10-20T12:06:03.365Z,72.74
2022-10-20T12:09:02.881Z,72.85
2022-10-20T12:11:47.828Z,72.82
2022-10-20T12:14:27.697Z,72.40
2022-10-20T12:17:28.586Z,72.75
2022-10-20T12:20:38.967Z,72.61
2022-10-20T12:24:03.635Z,73.06
2022-10-20T12:26:56.588Z,73.57
2022-10-20T12:30:30.435Z,72.94
2022-10-20T12:33:21.040Z,73.00
2022-10-20T12:36:15.084Z,72.96
2022-10-20T12:38:50.701Z,74.47
2022-10-20T12:41:29.356Z,74.07
2022-10-20T12:44:04.802Z,74.46
2022-10-20T12:46:46.935Z,73.03
2022-10-20T12:49:29.469Z,73.43
2022-10-20T12:52:03.987Z,73.25
2022-10-20T12:54:41.863Z,73.82
2022-10-20T12:57:31.984Z,74.33
2022-10-20T13:00:07.775Z,73.20
2022-10-20T13:02:53.604Z,73.73
2022-10-20T13:05:54.640Z,74.30
2022-10-20T13:08:31.594Z,73.98
2022-10-20T13:11:47.658Z,74.11
2022-10-20T13:14:54.294Z,73.45
2022-10-20T13:17:37.759Z,73.52
2022-10-20T13:20:23.836Z,73.17
2022-10-20T13:25:40.230Z,73.34
2022-10-20T13:28:19.891Z,73.44
2022-10-20T13:31:16.251Z,73.54
2022-10-20T13:34:04.677Z,73.49
2022-10-20T13:36:54.282Z,73.37
2022-10-20T13:39:38.906Z,73.28
2022-10-20T13:42:34.502Z,73.44
2022-10-20T13:45:18.785Z,73.12
2022-10-20T13:48:08.100Z,73.34
2022-10-20T13:50:44.264Z,73.00
2022-10-20T13:53:25.903Z,73.63
2022-10-20T13:56:03.729Z,73.33
2022-10-20T13:58:36.739Z,73.46
2022-10-20T14:01:19.279Z,73.41
2022-10-20T14:03:57.111Z,72.94
2022-10-20T14:06:35.315Z,73.37
2022-10-20T14:09:18.129Z,73.30
2022-10-20T14:11:55.303Z,73.25
2022-10-20T14:14:30.452Z,72.47
2022-10-20T14:17:05.337Z,72.35
2022-10-20T14:19:39.083Z,72.34
2022-10-20T14:22:18.548Z,72.91
2022-10-20T14:24:53.842Z,72.81
2022-10-20T14:27:31.289Z,73.06
2022-10-20T14:30:06.595Z,73.21
2022-10-20T14:32:41.333Z,73.04
2022-10-20T14:35:26.233Z,72.97
2022-10-20T14:38:03.379Z,73.11
2022-10-20T14:40:39.341Z,73.14
2022-10-20T14:43:18.581Z,72.84
2022-10-20T14:45:59.906Z,73.06
2022-10-20T14:48:39.258Z,73.14
2022-10-20T14:51:35.586Z,73.04
2022-10-20T14:57:31.417Z,73.41
2022-10-20T15:00:28.593Z,73.53
2022-10-20T15:03:07.220Z,73.42
2022-10-20T15:05:45.216Z,73.26
2022-10-20T15:08:26.436Z,73.21
2022-10-20T15:11:02.347Z,73.39
2022-10-20T15:13:35.538Z,71.86
2022-10-20T15:16:35.670Z,73.28
2022-10-20T15:19:29.485Z,72.97
2022-10-20T15:22:10.069Z,73.33
2022-10-20T15:24:43.108Z,73.06
2022-10-20T15:27:16.710Z,73.15
2022-10-20T15:29:55.288Z,73.59
2022-10-20T15:32:29.626Z,73.63
2022-10-20T15:35:02.541Z,73.58
2022-10-20T15:37:35.413Z,73.62
2022-10-20T15:40:09.382Z,73.58
2022-10-20T15:42:42.197Z,74.02
2022-10-20T15:45:17.826Z,73.77
2022-10-20T15:47:52.163Z,73.30
2022-10-20T15:50:25.574Z,73.41
2022-10-20T15:52:58.859Z,73.67
2022-10-20T15:55:33.258Z,72.93
2022-10-20T15:58:06.152Z,72.80
2022-10-20T16:00:39.093Z,72.98
2022-10-20T16:03:16.633Z,72.63
2022-10-20T16:05:49.554Z,73.00
2022-10-20T16:08:22.301Z,72.32
2022-10-20T16:10:56.799Z,72.08
2022-10-20T16:13:29.676Z,71.43
2022-10-20T16:16:04.544Z,72.05
2022-10-20T16:18:39.037Z,71.15
2022-10-20T16:21:12.414Z,71.30
2022-10-20T16:23:45.351Z,71.66
2022-10-20T16:26:18.471Z,71.35
2022-10-20T16:28:51.639Z,71.10
2022-10-20T16:31:39.278Z,71.33
2022-10-20T16:34:22.579Z,71.77
2022-10-20T16:36:56.719Z,70.87
2022-10-20T16:39:29.775Z,71.18
2022-10-20T16:42:02.995Z,71.42
2022-10-20T16:44:35.956Z,72.35
2022-10-20T16:47:08.923Z,72.32
2022-10-20T16:49:45.059Z,73.06
2022-10-20T16:52:19.271Z,72.53
2022-10-20T16:54:52.466Z,71.76
2022-10-20T16:57:26.571Z,71.77
2022-10-20T17:00:00.412Z,72.26
2022-10-20T17:02:42.942Z,72.44
2022-10-20T17:05:20.893Z,71.67
2022-10-20T17:07:53.934Z,71.97
2022-10-20T17:10:28.791Z,71.88
2022-10-20T17:13:08.112Z,71.90
2022-10-20T17:15:50.076Z,71.84
2022-10-20T17:18:29.835Z,72.08
2022-10-20T17:21:07.964Z,71.46
2022-10-20T17:23:49.263Z,72.41
2022-10-20T17:26:29.539Z,71.63
2022-10-20T17:29:03.104Z,71.82
2022-10-20T17:31:36.622Z,72.00
2022-10-20T17:34:10.227Z,71.34
2022-10-20T17:36:44.792Z,71.42
2022-10-20T17:39:26.151Z,71.75
2022-10-20T17:41:59.394Z,71.26
2022-10-20T17:45:03.339Z,72.34
2022-10-20T17:47:52.882Z,70.99
2022-10-20T17:50:27.531Z,71.45
2022-10-20T17:53:07.570Z,70.88
2022-10-20T17:55:41.051Z,71.42
2022-10-20T17:58:14.186Z,72.04
2022-10-20T18:00:56.136Z,71.42
2022-10-20T18:03:38.391Z,71.37
2022-10-20T18:06:13.595Z,70.93
2022-10-20T18:09:00.538Z,72.81
2022-10-20T18:11:36.601Z,72.00
2022-10-20T18:14:09.765Z,71.18
2022-10-20T18:16:47.819Z,72.02
2022-10-20T18:19:25.035Z,71.32
2022-10-20T18:21:58.086Z,71.63
2022-10-20T18:24:33.075Z,72.49
2022-10-20T18:27:06.716Z,72.38
2022-10-20T18:29:41.105Z,71.15
2022-10-20T18:32:14.106Z,71.62
2022-10-20T18:34:47.769Z,71.59
2022-10-20T18:37:20.706Z,71.63
2022-10-20T18:39:54.831Z,71.21
2022-10-20T18:42:27.761Z,70.82
2022-10-20T18:45:06.206Z,71.07
2022-10-20T18:47:41.868Z,70.83
2022-10-20T18:50:18.354Z,71.45
2022-10-20T18:52:51.542Z,71.68
2022-10-20T18:55:25.710Z,72.22
2022-10-20T18:57:58.907Z,71.02
2022-10-20T19:00:32.130Z,70.98
2022-10-20T19:03:07.862Z,70.49
2022-10-20T19:05:40.967Z,70.87
2022-10-20T19:08:13.876Z,70.80
2022-10-20T19:10:48.445Z,70.43
2022-10-20T19:13:31.887Z,70.51
2022-10-20T19:16:09.079Z,70.94
2022-10-20T19:18:43.074Z,70.43
2022-10-20T19:21:16.799Z,70.74
2022-10-20T19:23:59.995Z,70.38
2022-10-20T19:26:37.018Z,71.04
2022-10-20T19:29:12.442Z,70.03
2022-10-20T19:31:47.458Z,69.78
2022-10-20T19:34:22.689Z,70.12
2022-10-20T19:36:56.662Z,70.26
2022-10-20T19:39:31.768Z,70.65
2022-10-20T19:42:11.188Z,69.74
2022-10-20T19:44:48.532Z,69.97
2022-10-20T19:47:21.539Z,69.99
2022-10-20T19:50:17.914Z,69.46
2022-10-20T19:52:54.127Z,70.11
2022-10-20T19:55:29.491Z,69.60
2022-10-20T19:58:03.852Z,70.50
2022-10-20T20:00:37.036Z,69.90
2022-10-20T20:03:09.810Z,70.37
2022-10-20T20:05:44.391Z,69.61
2022-10-20T20:08:19.542Z,70.86
2022-10-20T20:10:53.140Z,69.51
2022-10-20T20:13:27.478Z,70.76
2022-10-20T20:16:07.235Z,69.94
2022-10-20T20:18:41.021Z,70.13
2022-10-20T20:21:14.708Z,70.26
2022-10-20T20:23:58.822Z,70.77
2022-10-20T20:26:33.762Z,72.33
2022-10-20T20:29:08.001Z,71.05
2022-10-20T20:31:40.841Z,70.21
2022-10-20T20:34:13.736Z,72.40
2022-10-20T20:36:46.512Z,69.84
2022-10-20T20:39:19.289Z,70.04
2022-10-20T20:41:52.029Z,70.00
2022-10-20T20:44:26.351Z,69.36
2022-10-20T20:46:59.155Z,70.24
2022-10-20T20:49:31.935Z,70.38
2022-10-20T20:52:05.007Z,70.44
2022-10-20T20:54:37.525Z,69.72
2022-10-20T20:57:10.233Z,70.91
2022-10-20T20:59:44.230Z,70.52
2022-10-20T21:02:17.448Z,70.08
2022-10-20T21:04:50.197Z,71.11
2022-10-20T21:07:23.003Z,70.29
2022-10-20T21:09:55.702Z,70.83
2022-10-20T21:12:30.603Z,70.89
2022-10-20T21:15:08.528Z,71.60
2022-10-20T21:17:41.295Z,70.33
2022-10-20T21:20:14.051Z,71.26
2022-10-20T21:22:47.049Z,70.79
2022-10-20T21:25:19.694Z,70.77
2022-10-20T21:27:52.456Z,70.54
2022-10-20T21:30:27.123Z,71.27
2022-10-20T21:33:00.031Z,70.96
2022-10-20T21:35:33.059Z,70.63
2022-10-20T21:38:05.669Z,71.95
2022-10-20T21:40:38.384Z,71.91
2022-10-20T21:43:12.198Z,70.98
2022-10-20T21:45:49.225Z,70.88
2022-10-20T21:48:22.061Z,70.26
2022-10-20T21:50:54.756Z,70.79
2022-10-20T21:53:27.546Z,70.19
2022-10-20T21:56:00.420Z,71.24
2022-10-20T21:58:33.514Z,70.55
2022-10-20T22:01:10.825Z,70.56
2022-10-20T22:03:44.065Z,71.43
2022-10-20T22:06:19.798Z,70.52
2022-10-20T22:08:54.995Z,70.45
2022-10-20T22:11:30.482Z,70.39
2022-10-20T22:14:03.990Z,72.82
2022-10-20T22:16:40.934Z,70.94
2022-10-20T22:19:15.889Z,73.45
2022-10-20T22:21:50.876Z,72.54
2022-10-20T22:24:24.484Z,71.82
2022-10-20T22:26:57.356Z,71.18
2022-10-20T22:29:30.060Z,70.74
2022-10-20T22:32:04.320Z,72.13
2022-10-20T22:34:37.104Z,71.33
2022-10-20T22:37:09.796Z,71.05
2022-10-20T22:39:42.554Z,72.73
2022-10-20T22:42:15.506Z,71.26
2022-10-20T22:44:48.705Z,71.64
2022-10-20T22:47:23.081Z,72.31
2022-10-20T22:49:55.759Z,71.81
2022-10-20T22:52:29.033Z,71.90
2022-10-20T22:55:01.715Z,72.49
2022-10-20T22:57:35.064Z,73.14
2022-10-20T23:00:08.718Z,71.41
2022-10-20T23:02:42.847Z,72.84
2022-10-20T23:05:15.781Z,73.85
2022-10-20T23:07:48.454Z,72.15
2022-10-20T23:10:21.121Z,73.38
2022-10-20T23:12:53.828Z,72.91
2022-10-20T23:15:27.367Z,73.12
2022-10-20T23:18:01.467Z,72.51
2022-10-20T23:20:34.165Z,71.99
2022-10-20T23:23:06.875Z,72.42
2022-10-20T23:25:41.765Z,72.64
2022-10-20T23:28:14.393Z,72.59
2022-10-20T23:30:47.291Z,72.21
2022-10-20T23:33:21.333Z,73.03
2022-10-20T23:35:54.106Z,73.09
2022-10-20T23:38:26.903Z,73.01
2022-10-20T23:40:59.619Z,73.19
2022-10-20T23:43:33.009Z,73.80
2022-10-20T23:46:06.269Z,73.46
2022-10-20T23:48:41.141Z,74.37
2022-10-20T23:51:13.907Z,73.64
2022-10-20T23:53:46.610Z,73.08
2022-10-20T23:56:19.334Z,73.50
2022-10-20T23:58:52.359Z,73.00
